createdAt,value
2022-07-31T00:00:10.482Z,99.90
2022-07-31T00:02:37.478Z,99.90
2022-07-31T00:05:04.739Z,99.90
2022-07-31T00:07:31.372Z,99.90
2022-07-31T00:09:57.991Z,99.90
2022-07-31T00:12:24.620Z,99.90
2022-07-31T00:14:51.237Z,99.90
2022-07-31T00:17:17.848Z,99.90
2022-07-31T00:19:44.450Z,99.90
2022-07-31T00:22:11.089Z,99.90
2022-07-31T00:24:37.872Z,99.90
2022-07-31T00:27:04.999Z,99.90
2022-07-31T00:29:32.062Z,99.90
2022-07-31T00:31:58.685Z,99.90
2022-07-31T00:34:25.273Z,99.90
2022-07-31T00:36:51.888Z,99.90
2022-07-31T00:39:18.498Z,99.90
2022-07-31T00:41:45.986Z,99.90
2022-07-31T00:44:13.780Z,99.90
2022-07-31T00:46:41.383Z,99.90
2022-07-31T00:49:10.020Z,99.90
2022-07-31T00:51:38.235Z,99.90
2022-07-31T00:54:05.849Z,99.90
2022-07-31T00:56:32.825Z,99.90
2022-07-31T00:58:59.483Z,99.90
2022-07-31T01:01:26.304Z,99.90
2022-07-31T01:03:53.106Z,99.90
2022-07-31T01:06:20.382Z,99.90
2022-07-31T01:08:47.032Z,99.90
2022-07-31T01:11:23.127Z,99.90
2022-07-31T01:13:57.129Z,99.90
2022-07-31T01:16:27.963Z,99.90
2022-07-31T01:18:56.002Z,99.90
2022-07-31T01:21:42.679Z,99.90
2022-07-31T01:24:15.049Z,99.90
2022-07-31T01:26:49.336Z,99.90
2022-07-31T01:29:29.002Z,99.90
2022-07-31T01:32:13.021Z,99.90
2022-07-31T01:34:49.731Z,99.90
2022-07-31T01:37:23.459Z,99.90
2022-07-31T01:40:17.939Z,99.90
2022-07-31T01:42:50.418Z,99.90
2022-07-31T01:45:20.091Z,99.90
2022-07-31T01:47:48.084Z,99.90
2022-07-31T01:50:42.509Z,99.90
2022-07-31T01:53:03.262Z,99.90
2022-07-31T01:55:31.820Z,99.90
2022-07-31T01:58:20.292Z,99.90
2022-07-31T02:00:49.091Z,99.90
2022-07-31T02:03:16.626Z,99.90
2022-07-31T02:05:45.041Z,99.90
2022-07-31T02:08:13.723Z,99.90
2022-07-31T02:10:41.075Z,99.90
2022-07-31T02:13:08.243Z,99.90
2022-07-31T02:15:35.447Z,99.90
2022-07-31T02:18:02.909Z,99.90
2022-07-31T02:20:31.107Z,99.90
2022-07-31T02:22:58.940Z,99.90
2022-07-31T02:25:26.621Z,99.90
2022-07-31T02:27:58.758Z,99.90
2022-07-31T02:30:38.867Z,99.90
2022-07-31T02:33:18.778Z,99.90
2022-07-31T02:35:47.811Z,99.90
2022-07-31T02:38:22.565Z,99.90
2022-07-31T02:40:53.098Z,99.90
2022-07-31T02:43:20.994Z,99.90
2022-07-31T02:45:48.626Z,99.90
2022-07-31T02:48:15.739Z,99.90
2022-07-31T02:50:43.383Z,99.90
2022-07-31T02:53:10.265Z,99.90
2022-07-31T02:55:37.628Z,99.90
2022-07-31T02:58:04.368Z,99.90
2022-07-31T03:00:31.071Z,99.90
2022-07-31T03:02:58.021Z,99.90
2022-07-31T03:05:24.846Z,99.90
2022-07-31T03:07:51.583Z,99.90
2022-07-31T03:10:18.524Z,99.90
2022-07-31T03:12:48.790Z,99.90
2022-07-31T03:15:18.047Z,99.90
2022-07-31T03:17:46.231Z,99.90
2022-07-31T03:20:14.445Z,99.90
2022-07-31T03:22:42.229Z,99.90
2022-07-31T03:25:09.816Z,99.90
2022-07-31T03:27:36.644Z,99.90
2022-07-31T03:30:04.898Z,99.90
2022-07-31T03:32:31.515Z,99.90
2022-07-31T03:34:58.142Z,99.90
2022-07-31T03:37:24.725Z,99.90
2022-07-31T03:39:51.376Z,99.90
2022-07-31T03:42:18.848Z,99.90
2022-07-31T03:44:47.476Z,99.90
2022-07-31T03:47:16.470Z,99.90
2022-07-31T03:49:44.038Z,99.90
2022-07-31T03:52:12.495Z,99.90
2022-07-31T03:54:40.187Z,99.90
2022-07-31T03:57:08.311Z,99.90
2022-07-31T03:59:40.486Z,99.90
2022-07-31T04:02:15.410Z,99.90
2022-07-31T04:04:45.633Z,99.90
2022-07-31T04:07:12.287Z,99.90
2022-07-31T04:09:38.949Z,99.90
2022-07-31T04:12:06.304Z,99.90
2022-07-31T04:14:33.222Z,99.90
2022-07-31T04:16:59.929Z,99.90
2022-07-31T04:19:26.625Z,99.90
2022-07-31T04:21:53.216Z,99.90
2022-07-31T04:24:19.864Z,99.90
2022-07-31T04:26:46.554Z,99.90
2022-07-31T04:29:13.200Z,99.90
2022-07-31T04:31:39.802Z,99.90
2022-07-31T04:34:06.418Z,99.90
2022-07-31T04:36:33.061Z,99.90
2022-07-31T04:39:01.416Z,99.90
2022-07-31T04:41:28.508Z,99.90
2022-07-31T04:43:55.207Z,99.90
2022-07-31T04:46:21.825Z,99.90
2022-07-31T04:48:49.220Z,99.90
2022-07-31T04:51:18.287Z,99.90
2022-07-31T04:53:45.989Z,99.90
2022-07-31T04:56:13.697Z,99.90
2022-07-31T04:58:40.345Z,99.90
2022-07-31T05:01:07.058Z,99.90
2022-07-31T05:03:33.744Z,99.90
2022-07-31T05:06:13.073Z,99.90
2022-07-31T05:08:40.241Z,99.90
2022-07-31T05:11:07.149Z,99.90
2022-07-31T05:13:33.773Z,99.90
2022-07-31T05:16:00.407Z,99.90
2022-07-31T05:18:27.099Z,99.90
2022-07-31T05:20:53.763Z,99.90
2022-07-31T05:23:20.612Z,99.90
2022-07-31T05:25:47.240Z,99.90
2022-07-31T05:28:13.842Z,99.90
2022-07-31T05:30:41.047Z,99.90
2022-07-31T05:33:07.688Z,99.90
2022-07-31T05:35:34.303Z,99.90
2022-07-31T05:38:00.932Z,99.90
2022-07-31T05:40:27.691Z,99.90
2022-07-31T05:42:54.316Z,99.90
2022-07-31T05:45:21.122Z,99.90
2022-07-31T05:47:47.729Z,99.90
2022-07-31T05:50:14.415Z,99.90
2022-07-31T05:52:41.184Z,99.90
2022-07-31T05:55:08.323Z,99.90
2022-07-31T05:57:34.924Z,99.90
2022-07-31T06:00:03.709Z,99.90
2022-07-31T06:02:30.754Z,99.90
2022-07-31T06:04:57.363Z,99.90
2022-07-31T06:07:24.245Z,99.90
2022-07-31T06:09:50.862Z,99.90
2022-07-31T06:12:18.249Z,99.90
2022-07-31T06:14:45.306Z,99.90
2022-07-31T06:17:12.071Z,99.90
2022-07-31T06:19:38.739Z,99.90
2022-07-31T06:22:05.864Z,99.90
2022-07-31T06:24:33.670Z,99.90
2022-07-31T06:27:01.466Z,99.90
2022-07-31T06:29:41.538Z,99.90
2022-07-31T06:32:09.349Z,99.90
2022-07-31T06:34:35.968Z,99.90
2022-07-31T06:37:02.580Z,99.90
2022-07-31T06:39:55.752Z,99.90
2022-07-31T06:42:23.458Z,99.90
2022-07-31T06:44:50.976Z,99.90
2022-07-31T06:47:19.295Z,99.90
2022-07-31T06:49:46.013Z,99.90
2022-07-31T06:52:12.714Z,99.90
2022-07-31T06:54:39.351Z,99.90
2022-07-31T06:57:05.989Z,99.90
2022-07-31T06:59:39.903Z,99.90
2022-07-31T07:02:08.120Z,99.90
2022-07-31T07:04:56.365Z,99.90
2022-07-31T07:07:22.831Z,99.90
2022-07-31T07:09:49.444Z,99.90
2022-07-31T07:12:16.843Z,99.90
2022-07-31T07:14:44.179Z,99.90
2022-07-31T07:17:10.930Z,99.90
2022-07-31T07:19:40.241Z,99.90
2022-07-31T07:22:07.066Z,99.90
2022-07-31T07:24:34.033Z,99.90
2022-07-31T07:27:00.691Z,99.90
2022-07-31T07:29:27.439Z,99.90
2022-07-31T07:31:54.087Z,99.90
2022-07-31T07:34:20.717Z,99.90
2022-07-31T07:36:47.330Z,99.90
2022-07-31T07:39:14.019Z,99.90
2022-07-31T07:41:40.664Z,99.90
2022-07-31T07:44:07.505Z,99.90
2022-07-31T07:46:34.386Z,99.90
2022-07-31T07:49:02.397Z,99.90
2022-07-31T07:51:29.094Z,99.90
2022-07-31T07:53:55.722Z,99.90
2022-07-31T07:56:22.373Z,99.90
2022-07-31T07:58:49.014Z,99.90
2022-07-31T08:01:17.358Z,99.90
2022-07-31T08:03:48.816Z,99.90
2022-07-31T08:06:22.782Z,99.90
2022-07-31T08:08:49.702Z,99.90
2022-07-31T08:11:17.614Z,99.90
2022-07-31T08:13:50.036Z,99.90
2022-07-31T08:16:17.375Z,99.90
2022-07-31T08:18:44.061Z,99.90
2022-07-31T08:21:10.738Z,99.90
2022-07-31T08:23:37.386Z,99.90
2022-07-31T08:26:04.332Z,99.90
2022-07-31T08:28:33.226Z,99.90
2022-07-31T08:31:00.510Z,99.90
2022-07-31T08:33:27.279Z,99.90
2022-07-31T08:35:53.938Z,99.90
2022-07-31T08:38:20.913Z,99.90
2022-07-31T08:40:47.548Z,99.90
2022-07-31T08:46:01.957Z,99.90
2022-07-31T08:48:32.168Z,99.90
2022-07-31T08:51:01.367Z,99.90
2022-07-31T08:53:30.338Z,99.90
2022-07-31T08:55:57.846Z,99.90
2022-07-31T08:58:24.870Z,99.90
2022-07-31T09:00:51.840Z,99.90
2022-07-31T09:03:19.020Z,99.90
2022-07-31T09:05:45.633Z,99.90
2022-07-31T09:08:15.136Z,99.90
2022-07-31T09:10:46.348Z,99.90
2022-07-31T09:13:17.498Z,99.90
2022-07-31T09:15:44.932Z,99.90
2022-07-31T09:18:19.170Z,99.40
2022-07-31T09:20:55.749Z,96.70
2022-07-31T09:23:23.100Z,97.50
2022-07-31T09:25:58.131Z,94.80
2022-07-31T09:28:39.153Z,93.50
2022-07-31T09:31:07.848Z,94.90
2022-07-31T09:33:34.976Z,93.70
2022-07-31T09:36:01.744Z,93.80
2022-07-31T09:38:43.095Z,94.40
2022-07-31T09:41:23.152Z,95.70
2022-07-31T09:44:02.576Z,94.20
2022-07-31T09:46:43.437Z,93.90
2022-07-31T09:49:10.191Z,92.40
2022-07-31T09:51:43.638Z,93.00
2022-07-31T09:54:24.813Z,92.50
2022-07-31T09:56:51.606Z,90.60
2022-07-31T09:59:18.538Z,89.80
2022-07-31T10:01:49.417Z,87.80
2022-07-31T10:04:20.789Z,87.90
2022-07-31T10:06:50.715Z,88.20
2022-07-31T10:09:19.507Z,87.60
2022-07-31T10:11:48.909Z,90.40
2022-07-31T10:14:28.485Z,90.10
2022-07-31T10:16:57.101Z,89.30
2022-07-31T10:19:24.743Z,89.60
2022-07-31T10:21:56.533Z,89.50
2022-07-31T10:24:28.097Z,90.30
2022-07-31T10:27:00.781Z,88.80
2022-07-31T10:29:32.673Z,89.80
2022-07-31T10:32:00.028Z,89.50
2022-07-31T10:34:27.129Z,88.60
2022-07-31T10:36:58.123Z,88.30
2022-07-31T10:39:31.549Z,88.50
2022-07-31T10:42:27.355Z,90.10
2022-07-31T10:45:03.379Z,89.10
2022-07-31T10:47:30.015Z,89.60
2022-07-31T10:49:56.640Z,87.70
2022-07-31T10:52:31.324Z,88.30
2022-07-31T10:54:58.700Z,86.50
2022-07-31T10:57:30.894Z,85.50
2022-07-31T11:00:09.343Z,86.90
2022-07-31T11:02:36.034Z,86.80
2022-07-31T11:05:17.699Z,87.30
2022-07-31T11:07:47.614Z,84.50
2022-07-31T11:10:15.874Z,86.10
2022-07-31T11:12:42.979Z,89.50
2022-07-31T11:15:24.244Z,84.80
2022-07-31T11:18:20.837Z,86.30
2022-07-31T11:20:38.607Z,80.90
2022-07-31T11:23:07.905Z,80.60
2022-07-31T11:25:38.204Z,81.00
2022-07-31T11:28:14.861Z,79.70
2022-07-31T11:31:10.776Z,81.00
2022-07-31T11:33:43.177Z,79.40
2022-07-31T11:36:19.569Z,77.80
2022-07-31T11:38:48.688Z,78.40
2022-07-31T11:41:17.477Z,76.20
2022-07-31T11:43:51.001Z,75.60
2022-07-31T11:46:26.153Z,75.90
2022-07-31T11:48:54.152Z,78.30
2022-07-31T11:51:20.936Z,77.70
2022-07-31T11:53:56.660Z,79.80
2022-07-31T11:56:25.063Z,79.20
2022-07-31T11:58:56.740Z,78.40
2022-07-31T12:01:28.055Z,78.30
2022-07-31T12:03:55.401Z,76.70
2022-07-31T12:06:22.366Z,76.70
2022-07-31T12:08:50.756Z,76.90
2022-07-31T12:11:18.951Z,77.80
2022-07-31T12:13:47.446Z,75.80
2022-07-31T12:16:15.011Z,75.30
2022-07-31T12:18:48.690Z,76.30
2022-07-31T12:21:16.764Z,70.60
2022-07-31T12:23:49.369Z,70.80
2022-07-31T12:26:30.639Z,71.50
2022-07-31T12:28:57.941Z,73.30
2022-07-31T12:31:24.914Z,71.20
2022-07-31T12:33:51.551Z,67.10
2022-07-31T12:36:18.237Z,69.90
2022-07-31T12:38:48.313Z,68.30
2022-07-31T12:41:16.550Z,66.80
2022-07-31T12:43:52.282Z,67.30
2022-07-31T12:46:35.785Z,66.40
2022-07-31T12:49:03.583Z,68.00
2022-07-31T12:51:46.128Z,66.70
2022-07-31T12:54:15.259Z,64.50
2022-07-31T12:56:42.915Z,65.00
2022-07-31T12:59:10.207Z,62.80
2022-07-31T13:01:37.330Z,63.40
2022-07-31T13:04:04.287Z,62.10
2022-07-31T13:06:31.339Z,61.60
2022-07-31T13:08:58.103Z,61.80
2022-07-31T13:11:25.051Z,61.30
2022-07-31T13:13:51.728Z,59.50
2022-07-31T13:16:18.636Z,59.60
2022-07-31T13:18:45.267Z,59.20
2022-07-31T13:21:11.980Z,59.70
2022-07-31T13:23:38.609Z,58.70
2022-07-31T13:26:05.242Z,59.00
2022-07-31T13:28:31.883Z,59.30
2022-07-31T13:31:01.161Z,59.50
2022-07-31T13:33:27.774Z,58.70
2022-07-31T13:35:54.378Z,59.20
2022-07-31T13:38:21.023Z,58.10
2022-07-31T13:40:47.669Z,56.60
2022-07-31T13:43:14.387Z,57.10
2022-07-31T13:45:41.031Z,57.50
2022-07-31T13:48:10.046Z,58.30
2022-07-31T13:50:38.829Z,59.60
2022-07-31T13:53:05.669Z,57.60
2022-07-31T13:55:32.345Z,57.60
2022-07-31T13:58:00.907Z,57.60
2022-07-31T14:00:29.483Z,58.60
2022-07-31T14:02:57.012Z,57.80
2022-07-31T14:05:24.214Z,58.00
2022-07-31T14:07:53.400Z,57.20
2022-07-31T14:10:21.630Z,57.10
2022-07-31T14:12:48.665Z,57.20
2022-07-31T14:15:15.435Z,58.20
2022-07-31T14:17:42.146Z,58.10
2022-07-31T14:20:09.383Z,58.20
2022-07-31T14:22:36.083Z,58.30
2022-07-31T14:25:02.831Z,59.00
2022-07-31T14:27:29.514Z,57.80
2022-07-31T14:29:56.207Z,57.80
2022-07-31T14:32:22.908Z,58.40
2022-07-31T14:34:49.970Z,57.70
2022-07-31T14:37:16.928Z,57.50
2022-07-31T14:39:43.860Z,57.30
2022-07-31T14:42:10.716Z,57.40
2022-07-31T14:44:37.369Z,57.60
2022-07-31T14:47:04.462Z,58.20
2022-07-31T14:50:07.046Z,57.50
2022-07-31T14:52:18.575Z,57.60
2022-07-31T14:54:45.319Z,57.80
2022-07-31T14:57:12.123Z,58.10
2022-07-31T14:59:38.863Z,58.20
2022-07-31T15:02:05.539Z,57.40
2022-07-31T15:04:32.625Z,58.70
2022-07-31T15:07:13.003Z,57.80
2022-07-31T15:09:45.583Z,56.90
2022-07-31T15:12:12.239Z,58.30
2022-07-31T15:14:38.858Z,58.10
2022-07-31T15:17:05.702Z,58.40
2022-07-31T15:19:32.516Z,58.40
2022-07-31T15:22:10.326Z,59.10
2022-07-31T15:24:49.036Z,59.60
2022-07-31T15:27:17.250Z,58.60
2022-07-31T15:30:04.088Z,59.10
2022-07-31T15:32:30.486Z,57.80
2022-07-31T15:34:57.139Z,59.30
2022-07-31T15:37:23.740Z,58.90
2022-07-31T15:40:01.605Z,59.60
2022-07-31T15:42:34.902Z,58.70
2022-07-31T15:45:01.506Z,59.20
2022-07-31T15:47:28.143Z,56.70
2022-07-31T15:49:54.997Z,56.90
2022-07-31T15:52:21.650Z,57.20
2022-07-31T15:54:51.797Z,57.80
2022-07-31T15:57:20.060Z,58.50
2022-07-31T15:59:46.684Z,59.00
2022-07-31T16:02:13.342Z,58.70
2022-07-31T16:04:51.451Z,58.30
2022-07-31T16:08:33.001Z,58.10
2022-07-31T16:10:15.733Z,58.80
2022-07-31T16:12:44.686Z,58.10
2022-07-31T16:15:11.629Z,58.90
2022-07-31T16:17:38.235Z,59.00
2022-07-31T16:20:26.321Z,59.10
2022-07-31T16:23:00.735Z,59.80
2022-07-31T16:25:29.538Z,59.10
2022-07-31T16:28:01.601Z,59.30
2022-07-31T16:30:28.229Z,59.60
2022-07-31T16:32:54.920Z,59.70
2022-07-31T16:35:22.062Z,60.40
2022-07-31T16:37:50.059Z,60.40
2022-07-31T16:40:30.047Z,61.10
2022-07-31T16:43:46.807Z,61.10
2022-07-31T16:45:50.276Z,61.50
2022-07-31T16:48:17.247Z,62.20
2022-07-31T16:50:43.887Z,61.50
2022-07-31T16:54:09.972Z,62.30
2022-07-31T16:56:00.944Z,61.90
2022-07-31T16:58:28.630Z,62.60
2022-07-31T17:00:55.347Z,62.60
2022-07-31T17:03:59.038Z,63.60
2022-07-31T17:06:08.732Z,63.80
2022-07-31T17:08:35.354Z,64.10
2022-07-31T17:11:02.007Z,63.80
2022-07-31T17:13:28.638Z,63.50
2022-07-31T17:15:55.277Z,63.30
2022-07-31T17:18:21.916Z,64.00
2022-07-31T17:20:48.526Z,64.50
2022-07-31T17:23:15.784Z,64.80
2022-07-31T17:25:42.786Z,65.60
2022-07-31T17:28:13.433Z,64.90
2022-07-31T17:30:41.961Z,65.40
2022-07-31T17:33:08.591Z,65.80
2022-07-31T17:35:35.232Z,66.20
2022-07-31T17:38:01.876Z,67.00
2022-07-31T17:40:43.016Z,67.20
2022-07-31T17:43:10.453Z,67.70
2022-07-31T17:45:50.707Z,68.60
2022-07-31T17:48:23.858Z,69.10
2022-07-31T17:50:54.134Z,69.40
2022-07-31T17:53:21.232Z,69.90
2022-07-31T17:55:47.958Z,69.90
2022-07-31T17:58:14.742Z,70.10
2022-07-31T18:00:41.386Z,70.30
2022-07-31T18:03:08.335Z,70.50
2022-07-31T18:05:35.948Z,71.10
2022-07-31T18:08:02.542Z,71.70
2022-07-31T18:10:53.045Z,71.90
2022-07-31T18:13:15.750Z,72.40
2022-07-31T18:15:42.394Z,72.00
2022-07-31T18:18:09.188Z,72.80
2022-07-31T18:20:35.816Z,73.60
2022-07-31T18:23:02.493Z,75.20
2022-07-31T18:25:29.215Z,75.00
2022-07-31T18:27:55.925Z,75.20
2022-07-31T18:30:23.609Z,75.40
2022-07-31T18:32:57.020Z,76.80
2022-07-31T18:35:23.648Z,77.60
2022-07-31T18:37:50.333Z,79.40
2022-07-31T18:40:16.959Z,78.80
2022-07-31T18:42:43.595Z,80.20
2022-07-31T18:45:10.382Z,80.60
2022-07-31T18:47:37.043Z,81.40
2022-07-31T18:51:00.588Z,82.60
2022-07-31T18:52:50.867Z,83.90
2022-07-31T18:55:17.568Z,84.50
2022-07-31T18:57:44.175Z,85.30
2022-07-31T19:00:11.434Z,86.20
2022-07-31T19:02:38.424Z,86.20
2022-07-31T19:05:05.944Z,86.10
2022-07-31T19:07:35.991Z,86.80
2022-07-31T19:10:04.710Z,87.70
2022-07-31T19:12:31.323Z,89.00
2022-07-31T19:14:57.936Z,89.20
2022-07-31T19:17:24.630Z,90.00
2022-07-31T19:20:10.855Z,90.60
2022-07-31T19:22:45.376Z,91.00
2022-07-31T19:25:12.001Z,91.40
2022-07-31T19:27:46.828Z,91.50
2022-07-31T19:30:17.155Z,91.80
2022-07-31T19:32:43.804Z,92.00
2022-07-31T19:35:10.796Z,92.50
2022-07-31T19:37:37.490Z,92.90
2022-07-31T19:40:05.359Z,93.40
2022-07-31T19:42:31.994Z,94.00
2022-07-31T19:44:58.711Z,94.40
2022-07-31T19:47:25.359Z,94.70
2022-07-31T19:49:52.010Z,95.10
2022-07-31T19:52:18.991Z,95.40
2022-07-31T19:54:45.630Z,95.50
2022-07-31T19:57:12.295Z,95.30
2022-07-31T19:59:38.918Z,95.50
2022-07-31T20:02:05.947Z,95.00
2022-07-31T20:04:32.866Z,95.30
2022-07-31T20:06:59.510Z,95.20
2022-07-31T20:09:26.157Z,95.20
2022-07-31T20:11:52.762Z,95.00
2022-07-31T20:14:19.397Z,95.10
2022-07-31T20:16:46.014Z,95.40
2022-07-31T20:19:12.685Z,95.60
2022-07-31T20:21:39.327Z,96.00
2022-07-31T20:24:06.592Z,96.00
2022-07-31T20:26:33.452Z,96.20
2022-07-31T20:29:00.097Z,96.50
2022-07-31T20:31:26.729Z,96.40
2022-07-31T20:33:56.908Z,96.90
2022-07-31T20:36:25.238Z,96.90
2022-07-31T20:38:51.872Z,96.90
2022-07-31T20:41:18.485Z,97.20
2022-07-31T20:43:45.158Z,97.30
2022-07-31T20:46:11.936Z,97.50
2022-07-31T20:48:38.832Z,97.70
2022-07-31T20:51:05.752Z,97.80
2022-07-31T20:53:32.496Z,98.10
2022-07-31T20:55:59.308Z,98.10
2022-07-31T20:58:26.472Z,97.70
2022-07-31T21:00:53.626Z,98.10
2022-07-31T21:03:20.719Z,98.50
2022-07-31T21:05:47.787Z,98.80
2022-07-31T21:08:15.019Z,99.10
2022-07-31T21:10:41.659Z,99.50
2022-07-31T21:13:08.485Z,99.80
2022-07-31T21:15:43.614Z,99.60
2022-07-31T21:18:16.083Z,99.70
2022-07-31T21:20:51.067Z,99.90
2022-07-31T21:23:24.407Z,99.90
2022-07-31T21:25:52.510Z,99.70
2022-07-31T21:28:19.683Z,99.70
2022-07-31T21:30:47.049Z,99.80
2022-07-31T21:33:13.757Z,99.90
2022-07-31T21:35:40.935Z,99.90
2022-07-31T21:38:10.230Z,99.90
2022-07-31T21:40:39.384Z,99.90
2022-07-31T21:43:06.292Z,99.90
2022-07-31T21:45:49.692Z,99.90
2022-07-31T21:48:23.457Z,99.90
2022-07-31T21:50:50.696Z,99.90
2022-07-31T21:53:17.510Z,99.90
2022-07-31T21:55:44.170Z,99.90
2022-07-31T21:58:10.879Z,99.90
2022-07-31T22:00:37.651Z,99.90
2022-07-31T22:03:04.701Z,99.90
2022-07-31T22:05:32.542Z,99.90
2022-07-31T22:07:59.134Z,99.90
2022-07-31T22:10:25.753Z,99.90
2022-07-31T22:12:58.334Z,99.90
2022-07-31T22:15:25.090Z,99.90
2022-07-31T22:17:51.702Z,99.90
2022-07-31T22:20:18.658Z,99.90
2022-07-31T22:22:45.489Z,99.90
2022-07-31T22:25:13.273Z,99.90
2022-07-31T22:27:40.405Z,99.90
2022-07-31T22:30:08.223Z,99.90
2022-07-31T22:32:35.607Z,99.90
2022-07-31T22:35:02.810Z,99.90
2022-07-31T22:37:29.469Z,99.90
2022-07-31T22:39:58.256Z,99.90
2022-07-31T22:42:25.450Z,99.90
2022-07-31T22:44:52.158Z,99.90
2022-07-31T22:47:19.341Z,99.90
2022-07-31T22:49:46.017Z,99.90
2022-07-31T22:52:12.757Z,99.90
2022-07-31T22:54:40.616Z,99.90
2022-07-31T22:57:07.454Z,99.90
2022-07-31T22:59:34.267Z,99.90
2022-07-31T23:02:04.435Z,99.90
2022-07-31T23:04:31.431Z,99.90
2022-07-31T23:06:58.075Z,99.90
2022-07-31T23:09:24.809Z,99.90
2022-07-31T23:11:51.755Z,99.90
2022-07-31T23:14:19.127Z,99.90
2022-07-31T23:16:45.838Z,99.90
2022-07-31T23:19:12.505Z,99.90
2022-07-31T23:21:42.253Z,99.90
2022-07-31T23:24:09.968Z,99.90
2022-07-31T23:26:36.681Z,99.90
2022-07-31T23:29:03.768Z,99.90
2022-07-31T23:31:30.454Z,99.90
2022-07-31T23:33:57.248Z,99.90
2022-07-31T23:36:23.879Z,99.90
2022-07-31T23:38:51.006Z,99.90
2022-07-31T23:41:17.642Z,99.90
2022-07-31T23:43:54.444Z,99.90
2022-07-31T23:46:26.716Z,99.90
2022-07-31T23:48:54.471Z,99.90
2022-07-31T23:51:22.529Z,99.90
2022-07-31T23:53:49.207Z,99.90
2022-07-31T23:56:19.412Z,99.90
2022-07-31T23:58:46.457Z,99.90
